Terminal Aerodrome Forecast
Issued by NWS

Home | Current Version | Previous Version | Text Only | Print | Product List | Glossary On
Versions: 1 2 3 4 5 6 7 8 9 10 11 12 13 14
000
FTUS43 KIND 250500
TAFHUF
TAF
KHUF 250520Z 2506/2606 16012KT P6SM SCT050 BKN070
     FM250800 18013G22KT P6SM -SHRA VCTS SCT015CB OVC025
     FM251400 21014G24KT P6SM VCTS BKN025CB
     FM251800 20014G24KT P6SM BKN035=

USA.gov is the U.S. government's official web portal to all federal, state and local government web resources and services.